sensor_id;sensor_type;location;lat;lon;timestamp;P1;durP1;ratioP1;P2;durP2;ratioP2
80852;SDS011;70270;43.434;28.338;2024-01-15T00:01:09;17.38;;;6.43;;
80852;SDS011;70270;43.434;28.338;2024-01-15T00:03:54;11.90;;;6.15;;
80852;SDS011;70270;43.434;28.338;2024-01-15T00:06:38;12.07;;;5.78;;
80852;SDS011;70270;43.434;28.338;2024-01-15T00:09:23;14.57;;;6.95;;
80852;SDS011;70270;43.434;28.338;2024-01-15T00:12:07;14.88;;;6.50;;
80852;SDS011;70270;43.434;28.338;2024-01-15T00:14:52;12.32;;;5.57;;
80852;SDS011;70270;43.434;28.338;2024-01-15T00:17:38;11.35;;;5.63;;
80852;SDS011;70270;43.434;28.338;2024-01-15T00:20:23;11.45;;;5.60;;
80852;SDS011;70270;43.434;28.338;2024-01-15T00:23:07;10.15;;;5.32;;
80852;SDS011;70270;43.434;28.338;2024-01-15T00:25:52;10.20;;;4.47;;
80852;SDS011;70270;43.434;28.338;2024-01-15T00:28:36;8.90;;;4.80;;
80852;SDS011;70270;43.434;28.338;2024-01-15T00:31:21;8.98;;;3.92;;
80852;SDS011;70270;43.434;28.338;2024-01-15T00:34:06;8.30;;;4.82;;
80852;SDS011;70270;43.434;28.338;2024-01-15T00:36:51;8.48;;;4.40;;
80852;SDS011;70270;43.434;28.338;2024-01-15T00:39:35;9.30;;;4.30;;
80852;SDS011;70270;43.434;28.338;2024-01-15T00:42:19;8.85;;;4.93;;
80852;SDS011;70270;43.434;28.338;2024-01-15T00:45:04;7.82;;;4.65;;
80852;SDS011;70270;43.434;28.338;2024-01-15T00:47:50;11.48;;;5.55;;
80852;SDS011;70270;43.434;28.338;2024-01-15T00:50:36;9.65;;;4.95;;
80852;SDS011;70270;43.434;28.338;2024-01-15T00:53:21;10.60;;;5.30;;
80852;SDS011;70270;43.434;28.338;2024-01-15T00:56:06;9.85;;;5.05;;
80852;SDS011;70270;43.434;28.338;2024-01-15T00:58:50;8.63;;;4.68;;
80852;SDS011;70270;43.434;28.338;2024-01-15T01:01:35;10.13;;;5.10;;
80852;SDS011;70270;43.434;28.338;2024-01-15T01:04:22;9.10;;;4.57;;
80852;SDS011;70270;43.434;28.338;2024-01-15T01:07:09;10.90;;;5.10;;
80852;SDS011;70270;43.434;28.338;2024-01-15T01:09:53;10.70;;;5.13;;
80852;SDS011;70270;43.434;28.338;2024-01-15T01:12:38;9.70;;;5.40;;
80852;SDS011;70270;43.434;28.338;2024-01-15T01:15:23;11.15;;;5.30;;
80852;SDS011;70270;43.434;28.338;2024-01-15T01:18:08;10.65;;;5.10;;
80852;SDS011;70270;43.434;28.338;2024-01-15T01:20:52;9.93;;;5.05;;
80852;SDS011;70270;43.434;28.338;2024-01-15T01:23:37;10.15;;;5.10;;
80852;SDS011;70270;43.434;28.338;2024-01-15T01:26:22;9.75;;;4.80;;
80852;SDS011;70270;43.434;28.338;2024-01-15T01:29:06;10.07;;;5.40;;
80852;SDS011;70270;43.434;28.338;2024-01-15T01:31:50;11.40;;;5.32;;
80852;SDS011;70270;43.434;28.338;2024-01-15T01:34:44;8.13;;;4.32;;
80852;SDS011;70270;43.434;28.338;2024-01-15T01:37:28;14.43;;;5.28;;
80852;SDS011;70270;43.434;28.338;2024-01-15T01:40:16;9.98;;;4.90;;
80852;SDS011;70270;43.434;28.338;2024-01-15T01:43:02;13.52;;;5.93;;
80852;SDS011;70270;43.434;28.338;2024-01-15T01:45:47;11.80;;;5.63;;
80852;SDS011;70270;43.434;28.338;2024-01-15T01:48:31;11.93;;;5.57;;
80852;SDS011;70270;43.434;28.338;2024-01-15T01:51:16;9.80;;;5.28;;
80852;SDS011;70270;43.434;28.338;2024-01-15T01:54:00;12.02;;;5.00;;
80852;SDS011;70270;43.434;28.338;2024-01-15T01:56:44;9.40;;;5.35;;
80852;SDS011;70270;43.434;28.338;2024-01-15T01:59:34;12.48;;;5.53;;
80852;SDS011;70270;43.434;28.338;2024-01-15T02:02:20;11.88;;;5.97;;
80852;SDS011;70270;43.434;28.338;2024-01-15T02:05:06;13.80;;;5.65;;
80852;SDS011;70270;43.434;28.338;2024-01-15T02:07:51;11.13;;;5.45;;
80852;SDS011;70270;43.434;28.338;2024-01-15T02:10:35;11.20;;;5.60;;
80852;SDS011;70270;43.434;28.338;2024-01-15T02:13:20;14.02;;;6.18;;
80852;SDS011;70270;43.434;28.338;2024-01-15T02:16:04;13.00;;;6.10;;
80852;SDS011;70270;43.434;28.338;2024-01-15T02:18:49;14.95;;;7.18;;
80852;SDS011;70270;43.434;28.338;2024-01-15T02:21:34;12.93;;;6.55;;
80852;SDS011;70270;43.434;28.338;2024-01-15T02:24:20;11.55;;;6.53;;
80852;SDS011;70270;43.434;28.338;2024-01-15T02:27:05;9.45;;;4.85;;
80852;SDS011;70270;43.434;28.338;2024-01-15T02:29:49;10.55;;;5.50;;
80852;SDS011;70270;43.434;28.338;2024-01-15T02:32:36;11.27;;;6.50;;
80852;SDS011;70270;43.434;28.338;2024-01-15T02:35:21;13.70;;;6.93;;
80852;SDS011;70270;43.434;28.338;2024-01-15T02:38:05;9.25;;;4.75;;
80852;SDS011;70270;43.434;28.338;2024-01-15T02:40:50;15.18;;;6.15;;
80852;SDS011;70270;43.434;28.338;2024-01-15T02:43:35;12.77;;;6.95;;
80852;SDS011;70270;43.434;28.338;2024-01-15T02:46:19;12.75;;;6.85;;
80852;SDS011;70270;43.434;28.338;2024-01-15T02:49:04;14.80;;;7.35;;
80852;SDS011;70270;43.434;28.338;2024-01-15T02:51:48;16.05;;;8.27;;
80852;SDS011;70270;43.434;28.338;2024-01-15T02:54:33;12.77;;;6.35;;
80852;SDS011;70270;43.434;28.338;2024-01-15T02:57:21;15.90;;;7.22;;
80852;SDS011;70270;43.434;28.338;2024-01-15T03:00:05;12.60;;;6.97;;
80852;SDS011;70270;43.434;28.338;2024-01-15T03:02:51;13.10;;;6.22;;
80852;SDS011;70270;43.434;28.338;2024-01-15T03:05:35;13.00;;;6.60;;
80852;SDS011;70270;43.434;28.338;2024-01-15T03:08:20;15.05;;;6.93;;
80852;SDS011;70270;43.434;28.338;2024-01-15T03:11:06;9.63;;;5.93;;
80852;SDS011;70270;43.434;28.338;2024-01-15T03:13:51;13.15;;;6.45;;
80852;SDS011;70270;43.434;28.338;2024-01-15T03:16:35;13.52;;;6.75;;
80852;SDS011;70270;43.434;28.338;2024-01-15T03:19:20;15.77;;;6.88;;
80852;SDS011;70270;43.434;28.338;2024-01-15T03:22:04;12.80;;;6.63;;
80852;SDS011;70270;43.434;28.338;2024-01-15T03:24:49;14.65;;;7.18;;
80852;SDS011;70270;43.434;28.338;2024-01-15T03:27:36;13.70;;;8.13;;
80852;SDS011;70270;43.434;28.338;2024-01-15T03:30:20;17.02;;;7.47;;
80852;SDS011;70270;43.434;28.338;2024-01-15T03:33:05;12.90;;;6.05;;
80852;SDS011;70270;43.434;28.338;2024-01-15T03:35:49;15.18;;;6.43;;
80852;SDS011;70270;43.434;28.338;2024-01-15T03:38:34;13.65;;;6.97;;
80852;SDS011;70270;43.434;28.338;2024-01-15T03:41:23;16.83;;;7.07;;
80852;SDS011;70270;43.434;28.338;2024-01-15T03:44:08;14.13;;;6.90;;
80852;SDS011;70270;43.434;28.338;2024-01-15T03:46:52;13.27;;;7.57;;
80852;SDS011;70270;43.434;28.338;2024-01-15T03:49:40;16.83;;;8.35;;
80852;SDS011;70270;43.434;28.338;2024-01-15T03:52:24;16.33;;;8.50;;
80852;SDS011;70270;43.434;28.338;2024-01-15T03:55:08;18.75;;;8.63;;
80852;SDS011;70270;43.434;28.338;2024-01-15T03:57:53;18.85;;;8.50;;
80852;SDS011;70270;43.434;28.338;2024-01-15T04:00:37;17.25;;;9.18;;
80852;SDS011;70270;43.434;28.338;2024-01-15T04:03:22;18.55;;;9.07;;
80852;SDS011;70270;43.434;28.338;2024-01-15T04:06:06;16.80;;;9.15;;
80852;SDS011;70270;43.434;28.338;2024-01-15T04:08:51;17.95;;;8.32;;
80852;SDS011;70270;43.434;28.338;2024-01-15T04:11:35;17.08;;;8.35;;
80852;SDS011;70270;43.434;28.338;2024-01-15T04:14:20;13.27;;;7.30;;
80852;SDS011;70270;43.434;28.338;2024-01-15T04:17:09;17.98;;;8.80;;
80852;SDS011;70270;43.434;28.338;2024-01-15T04:19:53;18.42;;;8.48;;
80852;SDS011;70270;43.434;28.338;2024-01-15T04:22:38;35.83;;;14.93;;
80852;SDS011;70270;43.434;28.338;2024-01-15T04:25:22;40.25;;;16.45;;
80852;SDS011;70270;43.434;28.338;2024-01-15T04:28:07;19.40;;;9.75;;
80852;SDS011;70270;43.434;28.338;2024-01-15T04:30:52;19.85;;;8.50;;
80852;SDS011;70270;43.434;28.338;2024-01-15T04:33:36;13.25;;;7.30;;
80852;SDS011;70270;43.434;28.338;2024-01-15T04:36:21;18.42;;;8.73;;
80852;SDS011;70270;43.434;28.338;2024-01-15T04:39:05;16.38;;;8.60;;
80852;SDS011;70270;43.434;28.338;2024-01-15T04:41:50;17.98;;;8.00;;
80852;SDS011;70270;43.434;28.338;2024-01-15T04:44:34;15.80;;;7.45;;
80852;SDS011;70270;43.434;28.338;2024-01-15T04:47:18;17.02;;;7.95;;
80852;SDS011;70270;43.434;28.338;2024-01-15T04:50:04;15.23;;;8.27;;
80852;SDS011;70270;43.434;28.338;2024-01-15T04:52:49;18.98;;;8.63;;
80852;SDS011;70270;43.434;28.338;2024-01-15T04:55:34;14.93;;;8.48;;
80852;SDS011;70270;43.434;28.338;2024-01-15T04:58:18;30.17;;;15.07;;
80852;SDS011;70270;43.434;28.338;2024-01-15T05:01:03;17.23;;;9.50;;
80852;SDS011;70270;43.434;28.338;2024-01-15T05:03:47;14.93;;;8.57;;
80852;SDS011;70270;43.434;28.338;2024-01-15T05:06:33;27.73;;;13.88;;
80852;SDS011;70270;43.434;28.338;2024-01-15T05:09:17;26.13;;;12.60;;
80852;SDS011;70270;43.434;28.338;2024-01-15T05:12:02;23.55;;;11.90;;
80852;SDS011;70270;43.434;28.338;2024-01-15T05:14:48;38.88;;;20.08;;
80852;SDS011;70270;43.434;28.338;2024-01-15T05:17:32;17.90;;;9.10;;
80852;SDS011;70270;43.434;28.338;2024-01-15T05:20:17;12.75;;;7.32;;
80852;SDS011;70270;43.434;28.338;2024-01-15T05:23:01;13.25;;;7.20;;
80852;SDS011;70270;43.434;28.338;2024-01-15T05:25:46;34.95;;;16.50;;
80852;SDS011;70270;43.434;28.338;2024-01-15T05:28:30;23.48;;;13.15;;
80852;SDS011;70270;43.434;28.338;2024-01-15T05:31:15;13.13;;;6.60;;
80852;SDS011;70270;43.434;28.338;2024-01-15T05:33:59;11.25;;;5.25;;
80852;SDS011;70270;43.434;28.338;2024-01-15T05:36:44;10.98;;;5.60;;
80852;SDS011;70270;43.434;28.338;2024-01-15T05:39:31;24.20;;;8.32;;
80852;SDS011;70270;43.434;28.338;2024-01-15T05:42:16;16.00;;;6.72;;
80852;SDS011;70270;43.434;28.338;2024-01-15T05:45:00;11.55;;;5.88;;
80852;SDS011;70270;43.434;28.338;2024-01-15T05:47:50;10.60;;;5.95;;
80852;SDS011;70270;43.434;28.338;2024-01-15T05:50:34;12.25;;;6.28;;
80852;SDS011;70270;43.434;28.338;2024-01-15T05:53:19;10.32;;;5.53;;
80852;SDS011;70270;43.434;28.338;2024-01-15T05:56:04;12.25;;;6.63;;
80852;SDS011;70270;43.434;28.338;2024-01-15T05:58:49;11.85;;;5.55;;
80852;SDS011;70270;43.434;28.338;2024-01-15T06:01:34;11.73;;;5.72;;
80852;SDS011;70270;43.434;28.338;2024-01-15T06:04:18;14.52;;;7.85;;
80852;SDS011;70270;43.434;28.338;2024-01-15T06:07:03;13.90;;;8.32;;
80852;SDS011;70270;43.434;28.338;2024-01-15T06:09:47;11.32;;;5.85;;
80852;SDS011;70270;43.434;28.338;2024-01-15T06:12:32;10.18;;;5.32;;
80852;SDS011;70270;43.434;28.338;2024-01-15T06:15:17;9.55;;;5.07;;
80852;SDS011;70270;43.434;28.338;2024-01-15T06:18:02;17.85;;;6.82;;
80852;SDS011;70270;43.434;28.338;2024-01-15T06:20:47;10.43;;;4.68;;
80852;SDS011;70270;43.434;28.338;2024-01-15T06:23:31;12.85;;;5.63;;
80852;SDS011;70270;43.434;28.338;2024-01-15T06:26:16;9.73;;;5.90;;
80852;SDS011;70270;43.434;28.338;2024-01-15T06:29:00;10.90;;;5.65;;
80852;SDS011;70270;43.434;28.338;2024-01-15T06:31:44;18.98;;;10.45;;
80852;SDS011;70270;43.434;28.338;2024-01-15T06:34:29;21.08;;;10.07;;
80852;SDS011;70270;43.434;28.338;2024-01-15T06:37:13;16.90;;;8.40;;
80852;SDS011;70270;43.434;28.338;2024-01-15T06:39:58;10.63;;;5.28;;
80852;SDS011;70270;43.434;28.338;2024-01-15T06:42:42;13.27;;;6.07;;
80852;SDS011;70270;43.434;28.338;2024-01-15T06:45:27;17.58;;;5.90;;
80852;SDS011;70270;43.434;28.338;2024-01-15T06:48:11;13.20;;;5.55;;
80852;SDS011;70270;43.434;28.338;2024-01-15T06:50:58;11.13;;;6.18;;
80852;SDS011;70270;43.434;28.338;2024-01-15T06:53:42;10.50;;;6.28;;
80852;SDS011;70270;43.434;28.338;2024-01-15T06:56:27;12.35;;;6.80;;
80852;SDS011;70270;43.434;28.338;2024-01-15T06:59:11;13.85;;;7.15;;
80852;SDS011;70270;43.434;28.338;2024-01-15T07:01:56;13.07;;;7.18;;
80852;SDS011;70270;43.434;28.338;2024-01-15T07:04:40;10.95;;;5.10;;
80852;SDS011;70270;43.434;28.338;2024-01-15T07:07:25;10.55;;;5.22;;
80852;SDS011;70270;43.434;28.338;2024-01-15T07:10:13;13.27;;;6.90;;
80852;SDS011;70270;43.434;28.338;2024-01-15T07:12:57;11.77;;;5.43;;
80852;SDS011;70270;43.434;28.338;2024-01-15T07:15:42;9.25;;;5.53;;
80852;SDS011;70270;43.434;28.338;2024-01-15T07:18:26;9.95;;;4.95;;
80852;SDS011;70270;43.434;28.338;2024-01-15T07:21:11;9.32;;;5.32;;
80852;SDS011;70270;43.434;28.338;2024-01-15T07:23:55;8.93;;;4.97;;
80852;SDS011;70270;43.434;28.338;2024-01-15T07:26:40;14.43;;;6.55;;
80852;SDS011;70270;43.434;28.338;2024-01-15T07:29:24;18.10;;;6.15;;
80852;SDS011;70270;43.434;28.338;2024-01-15T07:32:09;11.93;;;5.75;;
80852;SDS011;70270;43.434;28.338;2024-01-15T07:34:55;10.93;;;5.60;;
80852;SDS011;70270;43.434;28.338;2024-01-15T07:37:39;8.18;;;5.35;;
80852;SDS011;70270;43.434;28.338;2024-01-15T07:40:24;17.38;;;8.20;;
80852;SDS011;70270;43.434;28.338;2024-01-15T07:43:08;10.88;;;6.10;;
80852;SDS011;70270;43.434;28.338;2024-01-15T07:45:53;11.65;;;6.40;;
80852;SDS011;70270;43.434;28.338;2024-01-15T07:48:37;11.02;;;6.32;;
80852;SDS011;70270;43.434;28.338;2024-01-15T07:51:22;12.30;;;6.88;;
80852;SDS011;70270;43.434;28.338;2024-01-15T07:54:07;12.48;;;6.15;;
80852;SDS011;70270;43.434;28.338;2024-01-15T07:59:43;14.10;;;6.20;;
80852;SDS011;70270;43.434;28.338;2024-01-15T08:02:28;8.07;;;4.85;;
80852;SDS011;70270;43.434;28.338;2024-01-15T08:05:13;9.05;;;5.30;;
80852;SDS011;70270;43.434;28.338;2024-01-15T08:07:57;9.05;;;5.40;;
80852;SDS011;70270;43.434;28.338;2024-01-15T08:10:42;10.82;;;4.93;;
80852;SDS011;70270;43.434;28.338;2024-01-15T08:13:26;8.63;;;5.20;;
80852;SDS011;70270;43.434;28.338;2024-01-15T08:16:11;11.13;;;5.55;;
80852;SDS011;70270;43.434;28.338;2024-01-15T08:18:56;12.40;;;5.22;;
80852;SDS011;70270;43.434;28.338;2024-01-15T08:21:43;10.35;;;6.13;;
80852;SDS011;70270;43.434;28.338;2024-01-15T08:24:27;11.35;;;5.20;;
80852;SDS011;70270;43.434;28.338;2024-01-15T08:27:12;13.88;;;5.88;;
80852;SDS011;70270;43.434;28.338;2024-01-15T08:29:57;16.70;;;7.38;;
80852;SDS011;70270;43.434;28.338;2024-01-15T08:32:43;14.52;;;7.32;;
80852;SDS011;70270;43.434;28.338;2024-01-15T08:35:28;9.15;;;5.28;;
80852;SDS011;70270;43.434;28.338;2024-01-15T08:38:13;14.70;;;6.75;;
80852;SDS011;70270;43.434;28.338;2024-01-15T08:40:57;12.68;;;6.80;;
80852;SDS011;70270;43.434;28.338;2024-01-15T08:43:44;14.68;;;6.07;;
80852;SDS011;70270;43.434;28.338;2024-01-15T08:46:28;15.00;;;7.07;;
80852;SDS011;70270;43.434;28.338;2024-01-15T08:49:13;9.00;;;5.50;;
80852;SDS011;70270;43.434;28.338;2024-01-15T08:51:59;14.45;;;6.20;;
80852;SDS011;70270;43.434;28.338;2024-01-15T08:54:44;13.57;;;6.82;;
80852;SDS011;70270;43.434;28.338;2024-01-15T08:57:28;20.40;;;7.70;;
80852;SDS011;70270;43.434;28.338;2024-01-15T09:00:13;15.57;;;7.30;;
80852;SDS011;70270;43.434;28.338;2024-01-15T09:02:57;14.18;;;7.63;;
80852;SDS011;70270;43.434;28.338;2024-01-15T09:05:42;17.33;;;7.55;;
80852;SDS011;70270;43.434;28.338;2024-01-15T09:08:26;16.23;;;8.40;;
80852;SDS011;70270;43.434;28.338;2024-01-15T09:11:13;16.15;;;8.30;;
80852;SDS011;70270;43.434;28.338;2024-01-15T09:14:00;15.05;;;8.23;;
80852;SDS011;70270;43.434;28.338;2024-01-15T09:16:45;12.65;;;7.80;;
80852;SDS011;70270;43.434;28.338;2024-01-15T09:19:29;16.92;;;8.77;;
80852;SDS011;70270;43.434;28.338;2024-01-15T09:22:14;18.98;;;8.65;;
80852;SDS011;70270;43.434;28.338;2024-01-15T09:25:02;19.20;;;9.50;;
80852;SDS011;70270;43.434;28.338;2024-01-15T09:27:47;18.92;;;10.13;;
80852;SDS011;70270;43.434;28.338;2024-01-15T09:30:32;19.38;;;9.60;;
80852;SDS011;70270;43.434;28.338;2024-01-15T09:33:16;16.67;;;8.50;;
80852;SDS011;70270;43.434;28.338;2024-01-15T09:36:01;19.23;;;10.35;;
80852;SDS011;70270;43.434;28.338;2024-01-15T09:38:47;18.73;;;9.55;;
80852;SDS011;70270;43.434;28.338;2024-01-15T09:41:31;17.35;;;8.50;;
80852;SDS011;70270;43.434;28.338;2024-01-15T09:44:16;14.90;;;8.30;;
80852;SDS011;70270;43.434;28.338;2024-01-15T09:47:01;17.38;;;8.10;;
80852;SDS011;70270;43.434;28.338;2024-01-15T09:49:46;18.02;;;9.25;;
80852;SDS011;70270;43.434;28.338;2024-01-15T09:52:30;18.83;;;9.52;;
80852;SDS011;70270;43.434;28.338;2024-01-15T09:55:15;17.42;;;9.23;;
80852;SDS011;70270;43.434;28.338;2024-01-15T09:58:01;19.45;;;10.45;;
80852;SDS011;70270;43.434;28.338;2024-01-15T10:00:47;19.40;;;10.98;;
80852;SDS011;70270;43.434;28.338;2024-01-15T10:03:33;16.50;;;8.48;;
80852;SDS011;70270;43.434;28.338;2024-01-15T10:06:18;19.23;;;10.10;;
80852;SDS011;70270;43.434;28.338;2024-01-15T10:09:05;19.05;;;9.20;;
80852;SDS011;70270;43.434;28.338;2024-01-15T10:11:52;17.50;;;9.35;;
80852;SDS011;70270;43.434;28.338;2024-01-15T10:14:37;16.63;;;8.38;;
80852;SDS011;70270;43.434;28.338;2024-01-15T10:17:21;18.13;;;8.32;;
80852;SDS011;70270;43.434;28.338;2024-01-15T10:20:09;16.80;;;7.93;;
80852;SDS011;70270;43.434;28.338;2024-01-15T10:22:56;16.98;;;8.27;;
80852;SDS011;70270;43.434;28.338;2024-01-15T10:25:44;15.88;;;8.05;;
80852;SDS011;70270;43.434;28.338;2024-01-15T10:28:29;14.23;;;7.82;;
80852;SDS011;70270;43.434;28.338;2024-01-15T10:31:15;15.40;;;8.70;;
80852;SDS011;70270;43.434;28.338;2024-01-15T10:34:12;17.65;;;8.32;;
80852;SDS011;70270;43.434;28.338;2024-01-15T10:36:59;18.73;;;8.55;;
80852;SDS011;70270;43.434;28.338;2024-01-15T10:39:46;16.17;;;8.95;;
80852;SDS011;70270;43.434;28.338;2024-01-15T10:42:31;13.43;;;7.22;;
80852;SDS011;70270;43.434;28.338;2024-01-15T10:45:16;14.48;;;7.57;;
80852;SDS011;70270;43.434;28.338;2024-01-15T10:48:01;13.73;;;8.32;;
80852;SDS011;70270;43.434;28.338;2024-01-15T10:50:47;17.00;;;8.32;;
80852;SDS011;70270;43.434;28.338;2024-01-15T10:53:32;16.05;;;8.05;;
80852;SDS011;70270;43.434;28.338;2024-01-15T10:56:16;14.95;;;8.30;;
80852;SDS011;70270;43.434;28.338;2024-01-15T10:59:02;14.25;;;8.80;;
80852;SDS011;70270;43.434;28.338;2024-01-15T11:01:48;13.88;;;7.70;;
80852;SDS011;70270;43.434;28.338;2024-01-15T11:04:33;19.08;;;8.02;;
80852;SDS011;70270;43.434;28.338;2024-01-15T11:07:17;16.48;;;8.65;;
80852;SDS011;70270;43.434;28.338;2024-01-15T11:10:10;13.98;;;8.20;;
80852;SDS011;70270;43.434;28.338;2024-01-15T11:16:14;17.50;;;8.93;;
80852;SDS011;70270;43.434;28.338;2024-01-15T11:21:44;17.60;;;9.30;;
80852;SDS011;70270;43.434;28.338;2024-01-15T11:24:36;22.95;;;9.55;;
80852;SDS011;70270;43.434;28.338;2024-01-15T11:27:40;16.35;;;8.27;;
80852;SDS011;70270;43.434;28.338;2024-01-15T11:30:26;19.45;;;9.60;;
80852;SDS011;70270;43.434;28.338;2024-01-15T11:33:32;19.58;;;9.13;;
80852;SDS011;70270;43.434;28.338;2024-01-15T11:36:18;20.42;;;9.55;;
80852;SDS011;70270;43.434;28.338;2024-01-15T11:39:38;15.50;;;7.93;;
80852;SDS011;70270;43.434;28.338;2024-01-15T11:42:16;18.15;;;10.07;;
80852;SDS011;70270;43.434;28.338;2024-01-15T11:45:02;20.00;;;10.80;;
80852;SDS011;70270;43.434;28.338;2024-01-15T11:50:57;18.13;;;10.18;;
80852;SDS011;70270;43.434;28.338;2024-01-15T11:53:45;19.70;;;10.43;;
80852;SDS011;70270;43.434;28.338;2024-01-15T11:56:32;21.02;;;10.88;;
80852;SDS011;70270;43.434;28.338;2024-01-15T11:59:17;18.65;;;10.75;;
80852;SDS011;70270;43.434;28.338;2024-01-15T12:02:02;21.30;;;11.23;;
80852;SDS011;70270;43.434;28.338;2024-01-15T12:04:47;22.73;;;12.52;;
80852;SDS011;70270;43.434;28.338;2024-01-15T12:07:31;18.48;;;11.65;;
80852;SDS011;70270;43.434;28.338;2024-01-15T12:10:17;20.05;;;11.88;;
80852;SDS011;70270;43.434;28.338;2024-01-15T12:13:04;23.90;;;11.52;;
80852;SDS011;70270;43.434;28.338;2024-01-15T12:15:54;27.73;;;13.00;;
80852;SDS011;70270;43.434;28.338;2024-01-15T12:18:38;19.58;;;12.50;;
80852;SDS011;70270;43.434;28.338;2024-01-15T12:21:26;24.13;;;12.85;;
80852;SDS011;70270;43.434;28.338;2024-01-15T12:24:10;19.40;;;12.07;;
80852;SDS011;70270;43.434;28.338;2024-01-15T12:26:55;21.50;;;12.82;;
80852;SDS011;70270;43.434;28.338;2024-01-15T12:29:39;24.80;;;14.18;;
80852;SDS011;70270;43.434;28.338;2024-01-15T12:32:23;22.42;;;13.80;;
80852;SDS011;70270;43.434;28.338;2024-01-15T12:35:12;26.13;;;14.70;;
80852;SDS011;70270;43.434;28.338;2024-01-15T12:37:59;23.95;;;13.50;;
80852;SDS011;70270;43.434;28.338;2024-01-15T12:40:46;23.27;;;14.15;;
80852;SDS011;70270;43.434;28.338;2024-01-15T12:43:31;21.02;;;14.23;;
80852;SDS011;70270;43.434;28.338;2024-01-15T12:46:15;25.60;;;15.80;;
80852;SDS011;70270;43.434;28.338;2024-01-15T12:49:00;21.65;;;14.23;;
80852;SDS011;70270;43.434;28.338;2024-01-15T12:51:51;26.15;;;15.60;;
80852;SDS011;70270;43.434;28.338;2024-01-15T12:54:38;24.15;;;15.20;;
80852;SDS011;70270;43.434;28.338;2024-01-15T12:57:22;27.00;;;16.27;;
80852;SDS011;70270;43.434;28.338;2024-01-15T13:00:07;25.25;;;14.55;;
80852;SDS011;70270;43.434;28.338;2024-01-15T13:02:56;31.08;;;17.85;;
80852;SDS011;70270;43.434;28.338;2024-01-15T13:05:41;29.52;;;16.67;;
80852;SDS011;70270;43.434;28.338;2024-01-15T13:08:26;31.70;;;18.08;;
80852;SDS011;70270;43.434;28.338;2024-01-15T13:11:12;29.00;;;18.33;;
80852;SDS011;70270;43.434;28.338;2024-01-15T13:13:57;25.92;;;16.17;;
80852;SDS011;70270;43.434;28.338;2024-01-15T13:16:41;37.70;;;19.73;;
80852;SDS011;70270;43.434;28.338;2024-01-15T13:19:26;34.97;;;18.83;;
80852;SDS011;70270;43.434;28.338;2024-01-15T13:22:11;31.92;;;18.67;;
80852;SDS011;70270;43.434;28.338;2024-01-15T13:24:58;34.47;;;19.88;;
80852;SDS011;70270;43.434;28.338;2024-01-15T13:27:42;33.17;;;20.15;;
80852;SDS011;70270;43.434;28.338;2024-01-15T13:30:27;29.02;;;19.33;;
80852;SDS011;70270;43.434;28.338;2024-01-15T13:33:11;36.42;;;22.25;;
80852;SDS011;70270;43.434;28.338;2024-01-15T13:35:57;29.20;;;19.08;;
80852;SDS011;70270;43.434;28.338;2024-01-15T13:38:41;37.53;;;20.58;;
80852;SDS011;70270;43.434;28.338;2024-01-15T13:41:26;37.97;;;20.48;;
80852;SDS011;70270;43.434;28.338;2024-01-15T13:44:13;41.15;;;20.17;;
80852;SDS011;70270;43.434;28.338;2024-01-15T13:46:58;31.33;;;20.00;;
80852;SDS011;70270;43.434;28.338;2024-01-15T13:49:42;33.03;;;20.33;;
80852;SDS011;70270;43.434;28.338;2024-01-15T13:52:26;35.90;;;19.23;;
80852;SDS011;70270;43.434;28.338;2024-01-15T13:55:11;31.70;;;19.80;;
80852;SDS011;70270;43.434;28.338;2024-01-15T13:57:56;37.63;;;21.35;;
80852;SDS011;70270;43.434;28.338;2024-01-15T14:00:41;31.63;;;19.55;;
80852;SDS011;70270;43.434;28.338;2024-01-15T14:03:25;32.80;;;18.92;;
80852;SDS011;70270;43.434;28.338;2024-01-15T14:06:10;27.65;;;18.83;;
80852;SDS011;70270;43.434;28.338;2024-01-15T14:08:54;33.45;;;19.13;;
80852;SDS011;70270;43.434;28.338;2024-01-15T14:11:39;28.42;;;18.75;;
80852;SDS011;70270;43.434;28.338;2024-01-15T14:14:23;31.67;;;19.95;;
80852;SDS011;70270;43.434;28.338;2024-01-15T14:17:08;27.27;;;18.33;;
80852;SDS011;70270;43.434;28.338;2024-01-15T14:19:52;30.55;;;20.25;;
80852;SDS011;70270;43.434;28.338;2024-01-15T14:22:38;32.70;;;20.67;;
80852;SDS011;70270;43.434;28.338;2024-01-15T14:25:23;31.75;;;18.60;;
80852;SDS011;70270;43.434;28.338;2024-01-15T14:28:08;33.00;;;20.02;;
80852;SDS011;70270;43.434;28.338;2024-01-15T14:30:52;31.42;;;21.45;;
80852;SDS011;70270;43.434;28.338;2024-01-15T14:33:37;37.38;;;22.40;;
80852;SDS011;70270;43.434;28.338;2024-01-15T14:36:21;38.70;;;21.60;;
80852;SDS011;70270;43.434;28.338;2024-01-15T14:39:06;36.22;;;19.90;;
80852;SDS011;70270;43.434;28.338;2024-01-15T14:41:50;31.98;;;20.23;;
80852;SDS011;70270;43.434;28.338;2024-01-15T14:44:35;26.77;;;19.17;;
80852;SDS011;70270;43.434;28.338;2024-01-15T14:50:08;29.63;;;17.88;;
80852;SDS011;70270;43.434;28.338;2024-01-15T14:52:56;21.20;;;15.30;;
80852;SDS011;70270;43.434;28.338;2024-01-15T14:55:41;29.13;;;17.25;;
80852;SDS011;70270;43.434;28.338;2024-01-15T14:58:25;27.08;;;16.98;;
80852;SDS011;70270;43.434;28.338;2024-01-15T15:01:10;25.58;;;16.77;;
80852;SDS011;70270;43.434;28.338;2024-01-15T15:03:54;25.02;;;16.83;;
80852;SDS011;70270;43.434;28.338;2024-01-15T15:06:39;27.77;;;17.63;;
80852;SDS011;70270;43.434;28.338;2024-01-15T15:09:23;30.27;;;17.88;;
80852;SDS011;70270;43.434;28.338;2024-01-15T15:12:08;28.38;;;17.05;;
80852;SDS011;70270;43.434;28.338;2024-01-15T15:14:53;31.23;;;17.45;;
80852;SDS011;70270;43.434;28.338;2024-01-15T15:17:38;26.48;;;17.83;;
80852;SDS011;70270;43.434;28.338;2024-01-15T15:20:22;25.60;;;18.02;;
80852;SDS011;70270;43.434;28.338;2024-01-15T15:23:07;30.92;;;19.23;;
80852;SDS011;70270;43.434;28.338;2024-01-15T15:25:52;29.48;;;18.13;;
80852;SDS011;70270;43.434;28.338;2024-01-15T15:28:37;31.13;;;19.88;;
80852;SDS011;70270;43.434;28.338;2024-01-15T15:31:21;37.55;;;20.38;;
80852;SDS011;70270;43.434;28.338;2024-01-15T15:34:05;29.45;;;20.13;;
80852;SDS011;70270;43.434;28.338;2024-01-15T15:36:50;29.83;;;18.65;;
80852;SDS011;70270;43.434;28.338;2024-01-15T15:39:34;28.27;;;18.25;;
80852;SDS011;70270;43.434;28.338;2024-01-15T15:42:19;27.02;;;16.30;;
80852;SDS011;70270;43.434;28.338;2024-01-15T15:45:03;27.42;;;18.55;;
80852;SDS011;70270;43.434;28.338;2024-01-15T15:47:49;29.30;;;17.67;;
80852;SDS011;70270;43.434;28.338;2024-01-15T15:50:33;28.30;;;15.73;;
80852;SDS011;70270;43.434;28.338;2024-01-15T15:53:18;28.23;;;18.15;;
80852;SDS011;70270;43.434;28.338;2024-01-15T15:56:04;24.42;;;16.45;;
80852;SDS011;70270;43.434;28.338;2024-01-15T15:58:50;33.25;;;18.15;;
80852;SDS011;70270;43.434;28.338;2024-01-15T16:01:35;27.83;;;17.38;;
80852;SDS011;70270;43.434;28.338;2024-01-15T16:04:19;28.05;;;17.75;;
80852;SDS011;70270;43.434;28.338;2024-01-15T16:07:04;29.58;;;18.15;;
80852;SDS011;70270;43.434;28.338;2024-01-15T16:09:53;30.60;;;19.15;;
80852;SDS011;70270;43.434;28.338;2024-01-15T16:12:40;23.00;;;16.38;;
80852;SDS011;70270;43.434;28.338;2024-01-15T16:15:25;32.58;;;18.02;;
80852;SDS011;70270;43.434;28.338;2024-01-15T16:18:11;28.48;;;18.02;;